createdAt,value
2019-05-21T00:00:15.260Z,91.40
2019-05-21T00:02:44.864Z,88.57
2019-05-21T00:05:14.472Z,82.60
2019-05-21T00:07:44.103Z,79.81
2019-05-21T00:10:14.142Z,82.05
2019-05-21T00:12:43.733Z,83.52
2019-05-21T00:15:13.323Z,83.05
2019-05-21T00:17:42.984Z,79.99
2019-05-21T00:20:12.903Z,77.95
2019-05-21T00:22:42.555Z,77.08
2019-05-21T00:25:16.723Z,75.61
2019-05-21T00:27:43.681Z,78.89
2019-05-21T00:30:48.962Z,87.72
2019-05-21T00:33:54.202Z,89.22
2019-05-21T00:37:01.862Z,97.08
2019-05-21T00:40:07.166Z,100.00
2019-05-21T00:42:39.935Z,100.00
2019-05-21T00:45:12.375Z,100.00
2019-05-21T00:47:41.993Z,100.00
2019-05-21T00:50:11.909Z,100.00
2019-05-21T00:52:41.546Z,100.00
2019-05-21T00:55:11.144Z,100.00
2019-05-21T00:57:40.780Z,99.46
2019-05-21T01:00:11.213Z,95.25
2019-05-21T01:02:41.065Z,93.65
2019-05-21T01:05:10.894Z,91.10
2019-05-21T01:07:40.512Z,91.07
2019-05-21T01:10:10.333Z,91.78
2019-05-21T01:12:40.016Z,91.93
2019-05-21T01:15:09.802Z,91.88
2019-05-21T01:17:39.413Z,90.22
2019-05-21T01:20:09.071Z,91.03
2019-05-21T01:22:38.671Z,87.41
2019-05-21T01:25:08.430Z,85.51
2019-05-21T01:27:38.062Z,91.34
2019-05-21T01:30:08.430Z,92.77
2019-05-21T01:32:38.044Z,97.17
2019-05-21T01:35:16.748Z,95.79
2019-05-21T01:37:39.103Z,92.67
2019-05-21T01:40:08.786Z,95.66
2019-05-21T01:42:38.393Z,94.38
2019-05-21T01:45:08.381Z,98.16
2019-05-21T01:47:38.016Z,96.80
2019-05-21T01:50:08.207Z,99.92
2019-05-21T01:52:37.811Z,100.00
2019-05-21T01:55:07.556Z,100.00
2019-05-21T01:57:37.163Z,100.00
2019-05-21T02:00:07.065Z,100.00
2019-05-21T02:02:36.734Z,100.00
2019-05-21T02:05:07.074Z,100.00
2019-05-21T02:07:36.824Z,100.00
2019-05-21T02:10:07.296Z,100.00
2019-05-21T02:12:36.955Z,100.00
2019-05-21T02:15:07.176Z,100.00
2019-05-21T02:17:36.763Z,100.00
2019-05-21T02:20:06.653Z,100.00
2019-05-21T02:22:36.294Z,100.00
2019-05-21T02:25:07.920Z,100.00
2019-05-21T02:27:37.571Z,100.00
2019-05-21T02:30:09.685Z,100.00
2019-05-21T02:32:39.590Z,100.00
2019-05-21T02:35:09.487Z,100.00
2019-05-21T02:37:39.179Z,100.00
2019-05-21T02:40:10.452Z,100.00
2019-05-21T02:42:40.199Z,100.00
2019-05-21T02:45:11.309Z,100.00
2019-05-21T02:47:40.913Z,100.00
2019-05-21T02:50:11.411Z,100.00
2019-05-21T02:52:41.124Z,100.00
2019-05-21T02:55:11.248Z,100.00
2019-05-21T02:57:41.815Z,100.00
2019-05-21T03:00:29.963Z,100.00
2019-05-21T03:03:00.184Z,100.00
2019-05-21T03:05:30.225Z,100.00
2019-05-21T03:07:59.797Z,100.00
2019-05-21T03:10:29.453Z,100.00
2019-05-21T03:12:59.096Z,100.00
2019-05-21T03:15:28.732Z,100.00
2019-05-21T03:17:58.460Z,100.00
2019-05-21T03:20:28.083Z,100.00
2019-05-21T03:22:57.649Z,100.00
2019-05-21T03:25:27.388Z,100.00
2019-05-21T03:27:57.128Z,100.00
2019-05-21T03:30:26.809Z,100.00
2019-05-21T03:32:56.421Z,100.00
2019-05-21T03:35:26.029Z,100.00
2019-05-21T03:37:55.729Z,99.39
2019-05-21T03:40:25.324Z,98.31
2019-05-21T03:42:55.005Z,100.00
2019-05-21T03:45:24.752Z,100.00
2019-05-21T03:47:54.368Z,100.00
2019-05-21T03:50:23.984Z,100.00
2019-05-21T03:52:53.653Z,100.00
2019-05-21T03:55:23.256Z,100.00
2019-05-21T03:57:52.841Z,100.00
2019-05-21T04:00:22.703Z,100.00
2019-05-21T04:02:52.317Z,100.00
2019-05-21T04:05:26.135Z,100.00
2019-05-21T04:07:56.174Z,100.00
2019-05-21T04:10:26.403Z,100.00
2019-05-21T04:13:09.099Z,100.00
2019-05-21T04:15:56.559Z,100.00
2019-05-21T04:18:31.569Z,100.00
2019-05-21T04:21:01.188Z,100.00
2019-05-21T04:23:30.830Z,100.00
2019-05-21T04:26:00.428Z,100.00
2019-05-21T04:28:30.157Z,100.00
2019-05-21T04:30:59.761Z,100.00
2019-05-21T04:33:29.377Z,100.00
2019-05-21T04:35:59.014Z,100.00
2019-05-21T04:38:28.627Z,100.00
2019-05-21T04:40:58.268Z,100.00
2019-05-21T04:43:27.921Z,100.00
2019-05-21T04:45:57.537Z,100.00
2019-05-21T04:48:27.162Z,100.00
2019-05-21T04:50:56.809Z,100.00
2019-05-21T04:53:26.387Z,100.00
2019-05-21T04:55:56.033Z,100.00
2019-05-21T04:58:25.618Z,100.00
2019-05-21T05:00:55.271Z,100.00
2019-05-21T05:03:24.859Z,100.00
2019-05-21T05:05:54.447Z,100.00
2019-05-21T05:08:24.051Z,100.00
2019-05-21T05:10:53.608Z,100.00
2019-05-21T05:13:23.368Z,100.00
2019-05-21T05:15:52.963Z,100.00
2019-05-21T05:18:22.617Z,100.00
2019-05-21T05:20:52.231Z,100.00
2019-05-21T05:23:21.826Z,100.00
2019-05-21T05:25:51.462Z,100.00
2019-05-21T05:28:21.065Z,100.00
2019-05-21T05:30:50.736Z,100.00
2019-05-21T05:33:20.358Z,100.00
2019-05-21T05:35:49.937Z,100.00
2019-05-21T05:38:27.624Z,100.00
2019-05-21T05:40:57.204Z,100.00
2019-05-21T05:43:26.844Z,100.00
2019-05-21T05:45:56.520Z,97.47
2019-05-21T05:48:26.833Z,93.96
2019-05-21T05:50:58.119Z,97.05
2019-05-21T05:53:27.684Z,96.46
2019-05-21T05:55:57.287Z,97.22
2019-05-21T05:58:26.978Z,90.91
2019-05-21T06:00:56.545Z,94.98
2019-05-21T06:03:26.228Z,96.36
2019-05-21T06:05:56.017Z,95.28
2019-05-21T06:08:25.698Z,94.89
2019-05-21T06:10:55.347Z,93.81
2019-05-21T06:13:24.956Z,91.56
2019-05-21T06:15:54.619Z,73.05
2019-05-21T06:18:24.255Z,88.63
2019-05-21T06:20:53.866Z,81.29
2019-05-21T06:23:23.498Z,87.46
2019-05-21T06:25:53.099Z,85.75
2019-05-21T06:28:22.730Z,82.51
2019-05-21T06:30:52.347Z,76.53
2019-05-21T06:33:21.997Z,75.93
2019-05-21T06:35:51.586Z,79.43
2019-05-21T06:38:21.162Z,73.83
2019-05-21T06:40:50.830Z,71.95
2019-05-21T06:43:20.471Z,81.72
2019-05-21T06:45:50.077Z,79.11
2019-05-21T06:48:19.656Z,76.83
2019-05-21T06:50:49.235Z,73.94
2019-05-21T06:53:18.860Z,71.84
2019-05-21T06:55:48.462Z,73.92
2019-05-21T06:58:18.082Z,74.41
2019-05-21T07:00:47.630Z,75.84
2019-05-21T07:03:17.262Z,67.83
2019-05-21T07:05:58.505Z,62.28
2019-05-21T07:08:33.674Z,59.15
2019-05-21T07:10:49.527Z,56.97
2019-05-21T07:13:21.347Z,59.37
2019-05-21T07:15:50.905Z,54.10
2019-05-21T07:18:20.529Z,54.93
2019-05-21T07:20:50.129Z,52.52
2019-05-21T07:23:19.819Z,54.77
2019-05-21T07:25:49.418Z,49.36
2019-05-21T07:28:19.050Z,53.30
2019-05-21T07:30:48.783Z,52.72
2019-05-21T07:33:18.369Z,50.95
2019-05-21T07:35:47.947Z,52.72
2019-05-21T07:38:17.555Z,54.28
2019-05-21T07:40:47.187Z,52.05
2019-05-21T07:43:16.828Z,49.90
2019-05-21T07:45:46.433Z,50.06
2019-05-21T07:48:16.076Z,49.08
2019-05-21T07:50:45.708Z,48.76
2019-05-21T07:53:15.292Z,47.01
2019-05-21T07:55:44.876Z,47.53
2019-05-21T07:58:14.526Z,47.48
2019-05-21T08:00:44.209Z,45.82
2019-05-21T08:03:13.832Z,46.49
2019-05-21T08:05:43.473Z,48.85
2019-05-21T08:08:13.082Z,47.36
2019-05-21T08:10:42.665Z,47.73
2019-05-21T08:13:12.290Z,48.65
2019-05-21T08:15:42.034Z,47.75
2019-05-21T08:18:11.802Z,48.23
2019-05-21T08:20:41.585Z,45.79
2019-05-21T08:23:11.162Z,46.03
2019-05-21T08:25:40.906Z,45.63
2019-05-21T08:28:10.741Z,51.29
2019-05-21T08:30:40.339Z,49.98
2019-05-21T08:33:09.948Z,48.48
2019-05-21T08:35:39.683Z,51.07
2019-05-21T08:38:09.258Z,50.84
2019-05-21T08:40:39.003Z,47.62
2019-05-21T08:43:08.661Z,44.64
2019-05-21T08:45:38.334Z,46.34
2019-05-21T08:48:08.040Z,46.95
2019-05-21T08:50:37.652Z,46.25
2019-05-21T08:53:07.403Z,46.59
2019-05-21T08:55:36.995Z,45.94
2019-05-21T08:58:07.772Z,45.80
2019-05-21T09:00:37.714Z,43.92
2019-05-21T09:03:07.448Z,45.77
2019-05-21T09:05:37.477Z,44.21
2019-05-21T09:08:07.396Z,44.70
2019-05-21T09:10:40.655Z,42.92
2019-05-21T09:13:10.380Z,42.39
2019-05-21T09:15:40.365Z,41.52
2019-05-21T09:18:12.166Z,43.00
2019-05-21T09:20:42.093Z,43.85
2019-05-21T09:23:11.866Z,42.70
2019-05-21T09:25:41.565Z,46.19
2019-05-21T09:28:11.182Z,43.93
2019-05-21T09:30:42.146Z,40.43
2019-05-21T09:33:11.759Z,40.43
2019-05-21T09:35:41.738Z,40.56
2019-05-21T09:38:11.367Z,42.18
2019-05-21T09:40:41.022Z,41.71
2019-05-21T09:43:10.727Z,45.56
2019-05-21T09:45:40.428Z,45.56
2019-05-21T09:48:10.175Z,45.45
2019-05-21T09:50:39.808Z,43.13
2019-05-21T09:53:09.383Z,41.98
2019-05-21T09:55:39.018Z,41.00
2019-05-21T09:58:33.407Z,38.81
2019-05-21T10:01:37.378Z,40.71
2019-05-21T10:04:07.187Z,40.30
2019-05-21T10:06:36.877Z,39.66
2019-05-21T10:09:09.825Z,39.93
2019-05-21T10:11:39.434Z,37.69
2019-05-21T10:14:09.071Z,39.86
2019-05-21T10:16:38.646Z,36.00
2019-05-21T10:19:08.275Z,34.77
2019-05-21T10:21:38.014Z,37.54
2019-05-21T10:24:07.809Z,37.78
2019-05-21T10:26:37.655Z,37.87
2019-05-21T10:29:07.311Z,38.74
2019-05-21T10:31:40.142Z,36.40
2019-05-21T10:34:12.700Z,36.54
2019-05-21T10:36:41.265Z,35.24
2019-05-21T10:39:10.944Z,35.68
2019-05-21T10:41:40.543Z,36.91
2019-05-21T10:44:10.124Z,35.82
2019-05-21T10:46:39.771Z,35.60
2019-05-21T10:49:09.373Z,35.25
2019-05-21T10:51:39.076Z,35.92
2019-05-21T10:54:08.788Z,33.91
2019-05-21T10:56:47.600Z,34.99
2019-05-21T10:59:09.689Z,34.47
2019-05-21T11:01:49.695Z,34.32
2019-05-21T11:04:44.094Z,33.61
2019-05-21T11:07:15.223Z,34.99
2019-05-21T11:09:44.792Z,35.58
2019-05-21T11:12:14.470Z,34.78
2019-05-21T11:14:44.058Z,33.98
2019-05-21T11:17:13.857Z,34.46
2019-05-21T11:19:43.533Z,34.06
2019-05-21T11:22:13.223Z,34.54
2019-05-21T11:24:42.804Z,33.78
2019-05-21T11:27:12.384Z,35.03
2019-05-21T11:29:42.025Z,34.98
2019-05-21T11:32:11.584Z,33.41
2019-05-21T11:34:41.177Z,34.31
2019-05-21T11:37:10.966Z,33.06
2019-05-21T11:39:40.620Z,31.60
2019-05-21T11:42:10.367Z,30.55
2019-05-21T11:44:40.031Z,32.03
2019-05-21T11:47:09.597Z,33.61
2019-05-21T11:49:39.197Z,31.69
2019-05-21T11:52:08.775Z,31.90
2019-05-21T11:54:38.409Z,33.25
2019-05-21T11:57:08.211Z,36.30
2019-05-21T11:59:37.817Z,35.46
2019-05-21T12:02:09.091Z,32.09
2019-05-21T12:04:38.771Z,31.71
2019-05-21T12:07:08.386Z,32.77
2019-05-21T12:09:37.951Z,31.70
2019-05-21T12:12:07.651Z,34.07
2019-05-21T12:14:37.199Z,32.96
2019-05-21T12:17:06.785Z,34.55
2019-05-21T12:19:36.408Z,33.32
2019-05-21T12:22:06.007Z,32.79
2019-05-21T12:24:35.591Z,33.11
2019-05-21T12:27:05.319Z,34.56
2019-05-21T12:29:34.907Z,34.20
2019-05-21T12:32:04.670Z,33.42
2019-05-21T12:34:34.325Z,31.62
2019-05-21T12:37:03.929Z,32.14
2019-05-21T12:39:33.518Z,31.60
2019-05-21T12:42:03.246Z,29.98
2019-05-21T12:44:32.883Z,29.89
2019-05-21T12:47:02.471Z,33.32
2019-05-21T12:49:32.082Z,30.17
2019-05-21T12:52:01.721Z,31.67
2019-05-21T12:54:31.289Z,32.17
2019-05-21T12:57:00.961Z,30.83
2019-05-21T12:59:31.532Z,31.76
2019-05-21T13:02:01.201Z,32.14
2019-05-21T13:04:30.784Z,32.98
2019-05-21T13:07:00.420Z,31.63
2019-05-21T13:09:32.667Z,31.91
2019-05-21T13:12:01.335Z,31.62
2019-05-21T13:14:31.001Z,32.05
2019-05-21T13:17:00.554Z,31.41
2019-05-21T13:19:30.162Z,31.93
2019-05-21T13:21:59.775Z,32.49
2019-05-21T13:24:29.350Z,33.81
2019-05-21T13:26:58.987Z,32.94
2019-05-21T13:29:28.602Z,29.68
2019-05-21T13:31:58.190Z,30.15
2019-05-21T13:34:27.882Z,30.40
2019-05-21T13:36:57.480Z,33.66
2019-05-21T13:39:27.104Z,32.18
2019-05-21T13:41:56.731Z,30.71
2019-05-21T13:44:27.403Z,30.53
2019-05-21T13:46:56.997Z,32.63
2019-05-21T13:49:26.558Z,31.07
2019-05-21T13:51:56.202Z,31.44
2019-05-21T13:54:25.863Z,30.95
2019-05-21T13:57:00.153Z,33.29
2019-05-21T13:59:33.847Z,31.80
2019-05-21T14:02:06.040Z,32.97
2019-05-21T14:04:39.645Z,33.59
2019-05-21T14:07:16.303Z,33.94
2019-05-21T14:09:48.416Z,35.50
2019-05-21T14:12:19.321Z,34.16
2019-05-21T14:14:56.047Z,33.23
2019-05-21T14:17:31.040Z,32.01
2019-05-21T14:20:02.250Z,32.83
2019-05-21T14:22:36.363Z,32.44
2019-05-21T14:25:05.166Z,33.50
2019-05-21T14:27:44.292Z,33.54
2019-05-21T14:30:08.123Z,32.83
2019-05-21T14:32:38.388Z,34.74
2019-05-21T14:35:12.798Z,35.09
2019-05-21T14:37:49.790Z,34.44
2019-05-21T14:40:31.697Z,34.43
2019-05-21T14:43:00.570Z,32.42
2019-05-21T14:45:35.350Z,33.12
2019-05-21T14:48:10.095Z,32.98
2019-05-21T14:50:40.397Z,33.04
2019-05-21T14:53:13.130Z,33.44
2019-05-21T14:55:43.564Z,32.41
2019-05-21T14:58:14.065Z,32.90
2019-05-21T15:00:46.710Z,32.92
2019-05-21T15:03:25.247Z,33.22
2019-05-21T15:05:49.740Z,32.31
2019-05-21T15:08:19.434Z,32.04
2019-05-21T15:10:50.633Z,32.39
2019-05-21T15:13:22.499Z,32.40
2019-05-21T15:15:53.675Z,31.50
2019-05-21T15:18:23.747Z,33.16
2019-05-21T15:21:04.682Z,33.38
2019-05-21T15:23:36.431Z,32.77
2019-05-21T15:26:10.171Z,33.39
2019-05-21T15:28:40.368Z,32.59
2019-05-21T15:31:11.397Z,32.02
2019-05-21T15:33:42.619Z,33.31
2019-05-21T15:36:12.968Z,32.70
2019-05-21T15:38:50.104Z,31.63
2019-05-21T15:41:16.036Z,32.41
2019-05-21T15:43:45.988Z,33.40
2019-05-21T15:46:16.586Z,32.91
2019-05-21T15:48:47.329Z,33.24
2019-05-21T15:51:17.525Z,33.13
2019-05-21T15:53:48.294Z,33.69
2019-05-21T15:56:18.926Z,33.71
2019-05-21T15:58:48.911Z,33.57
2019-05-21T16:01:19.356Z,29.37
2019-05-21T16:03:49.805Z,31.32
2019-05-21T16:06:19.528Z,31.71
2019-05-21T16:08:49.462Z,31.14
2019-05-21T16:11:28.762Z,30.89
2019-05-21T16:13:51.984Z,30.77
2019-05-21T16:16:23.184Z,28.38
2019-05-21T16:18:53.480Z,27.64
2019-05-21T16:21:23.753Z,27.96
2019-05-21T16:23:56.624Z,27.60
2019-05-21T16:26:26.897Z,27.94
2019-05-21T16:28:58.212Z,27.41
2019-05-21T16:31:28.160Z,27.20
2019-05-21T16:33:57.917Z,28.22
2019-05-21T16:36:27.645Z,28.84
2019-05-21T16:38:57.560Z,28.99
2019-05-21T16:41:27.333Z,28.90
2019-05-21T16:43:56.945Z,29.10
2019-05-21T16:46:26.883Z,28.79
2019-05-21T16:48:56.607Z,29.52
2019-05-21T16:51:26.285Z,29.24
2019-05-21T16:53:56.070Z,29.66
2019-05-21T16:56:26.116Z,29.90
2019-05-21T16:58:55.782Z,30.24
2019-05-21T17:01:25.669Z,30.48
2019-05-21T17:03:59.833Z,30.87
2019-05-21T17:06:26.848Z,31.22
2019-05-21T17:08:56.639Z,31.94
2019-05-21T17:11:26.375Z,31.55
2019-05-21T17:13:56.120Z,31.78
2019-05-21T17:16:25.832Z,30.35
2019-05-21T17:18:55.545Z,30.23
2019-05-21T17:21:25.283Z,30.06
2019-05-21T17:23:54.905Z,30.87
2019-05-21T17:26:24.565Z,30.92
2019-05-21T17:28:54.203Z,30.68
2019-05-21T17:31:23.857Z,31.08
2019-05-21T17:33:53.609Z,31.47
2019-05-21T17:36:23.221Z,31.97
2019-05-21T17:38:52.894Z,32.07
2019-05-21T17:41:22.515Z,32.16
2019-05-21T17:43:52.265Z,32.28
2019-05-21T17:46:22.044Z,32.69
2019-05-21T17:48:54.164Z,33.06
2019-05-21T17:51:23.758Z,32.96
2019-05-21T17:53:53.555Z,33.07
2019-05-21T17:56:23.204Z,33.04
2019-05-21T17:58:52.962Z,32.91
2019-05-21T18:01:23.139Z,32.60
2019-05-21T18:03:53.224Z,33.71
2019-05-21T18:06:24.285Z,34.00
2019-05-21T18:08:53.923Z,34.03
2019-05-21T18:11:24.005Z,34.60
2019-05-21T18:13:53.854Z,33.81
2019-05-21T18:16:23.588Z,33.19
2019-05-21T18:18:53.519Z,33.62
2019-05-21T18:21:25.145Z,33.71
2019-05-21T18:23:55.029Z,33.36
2019-05-21T18:26:24.864Z,33.41
2019-05-21T18:28:54.471Z,33.99
2019-05-21T18:31:24.233Z,35.96
2019-05-21T18:33:53.885Z,35.40
2019-05-21T18:36:23.609Z,35.44
2019-05-21T18:38:53.960Z,36.17
2019-05-21T18:41:23.884Z,36.15
2019-05-21T18:43:53.697Z,35.99
2019-05-21T18:46:23.308Z,36.08
2019-05-21T18:48:53.006Z,36.08
2019-05-21T18:51:22.649Z,36.27
2019-05-21T18:53:52.561Z,38.74
2019-05-21T18:56:22.257Z,36.50
2019-05-21T18:58:52.100Z,36.76
2019-05-21T19:01:22.127Z,37.50
2019-05-21T19:03:51.851Z,37.50
2019-05-21T19:06:21.702Z,37.55
2019-05-21T19:08:51.421Z,37.55
2019-05-21T19:11:21.184Z,37.95
2019-05-21T19:13:50.808Z,37.95
2019-05-21T19:16:20.434Z,37.97
2019-05-21T19:18:50.206Z,37.69
2019-05-21T19:21:19.823Z,38.30
2019-05-21T19:23:49.442Z,37.08
2019-05-21T19:26:19.405Z,37.69
2019-05-21T19:28:49.090Z,37.13
2019-05-21T19:31:18.923Z,37.51
2019-05-21T19:33:48.690Z,37.56
2019-05-21T19:36:18.355Z,37.46
2019-05-21T19:38:48.322Z,37.41
2019-05-21T19:41:18.037Z,37.74
2019-05-21T19:43:47.709Z,38.14
2019-05-21T19:46:17.404Z,38.25
2019-05-21T19:48:47.053Z,38.17
2019-05-21T19:51:16.815Z,38.27
2019-05-21T19:53:46.583Z,39.25
2019-05-21T19:56:16.459Z,39.68
2019-05-21T19:58:46.379Z,39.52
2019-05-21T20:01:16.171Z,39.76
2019-05-21T20:03:46.264Z,40.29
2019-05-21T20:06:17.711Z,40.11
2019-05-21T20:08:47.598Z,40.82
2019-05-21T20:11:17.579Z,40.81
2019-05-21T20:13:47.483Z,40.70
2019-05-21T20:16:19.131Z,41.60
2019-05-21T20:18:48.873Z,41.45
2019-05-21T20:21:19.761Z,40.82
2019-05-21T20:23:49.794Z,40.40
2019-05-21T20:26:21.801Z,40.20
2019-05-21T20:28:51.493Z,40.78
2019-05-21T20:31:23.119Z,40.68
2019-05-21T20:33:53.085Z,40.72
2019-05-21T20:36:23.135Z,40.60
2019-05-21T20:38:53.503Z,40.46
2019-05-21T20:41:23.779Z,40.01
2019-05-21T20:43:59.005Z,39.68
2019-05-21T20:46:25.221Z,40.33
2019-05-21T20:48:55.363Z,40.19
2019-05-21T20:51:25.078Z,40.24
2019-05-21T20:53:55.016Z,40.40
2019-05-21T20:56:24.607Z,40.35
2019-05-21T20:58:54.331Z,40.71
2019-05-21T21:01:25.513Z,41.30
2019-05-21T21:03:55.747Z,41.18
2019-05-21T21:06:35.205Z,40.86
2019-05-21T21:08:58.307Z,41.12
2019-05-21T21:11:28.505Z,41.51
2019-05-21T21:13:58.127Z,41.60
2019-05-21T21:16:27.786Z,41.49
2019-05-21T21:18:57.518Z,41.58
2019-05-21T21:21:27.795Z,41.46
2019-05-21T21:23:58.419Z,41.23
2019-05-21T21:26:28.802Z,41.15
2019-05-21T21:28:58.513Z,40.90
2019-05-21T21:31:28.141Z,41.00
2019-05-21T21:33:57.740Z,41.28
2019-05-21T21:36:27.446Z,41.24
2019-05-21T21:38:57.872Z,41.72
2019-05-21T21:41:27.580Z,41.77
2019-05-21T21:43:57.552Z,41.84
2019-05-21T21:46:27.340Z,42.29
2019-05-21T21:48:57.112Z,41.55
2019-05-21T21:51:26.955Z,40.99
2019-05-21T21:53:56.648Z,40.29
2019-05-21T21:56:26.331Z,40.84
2019-05-21T21:58:56.038Z,40.53
2019-05-21T22:01:54.453Z,40.54
2019-05-21T22:04:29.516Z,40.89
2019-05-21T22:07:00.050Z,40.08
2019-05-21T22:09:35.557Z,40.20
2019-05-21T22:12:06.541Z,40.50
2019-05-21T22:14:49.683Z,41.29
2019-05-21T22:17:09.844Z,40.88
2019-05-21T22:19:40.171Z,41.17
2019-05-21T22:22:10.684Z,41.72
2019-05-21T22:24:40.393Z,42.07
2019-05-21T22:27:10.257Z,42.31
2019-05-21T22:29:40.203Z,45.53
2019-05-21T22:32:09.812Z,46.12
2019-05-21T22:34:39.416Z,46.49
2019-05-21T22:37:12.810Z,46.58
2019-05-21T22:39:44.702Z,44.10
2019-05-21T22:42:15.794Z,43.47
2019-05-21T22:44:45.951Z,45.02
2019-05-21T22:47:15.820Z,46.06
2019-05-21T22:49:45.401Z,45.07
2019-05-21T22:52:15.555Z,44.82
2019-05-21T22:54:45.211Z,44.12
2019-05-21T22:57:14.813Z,44.57
2019-05-21T22:59:44.477Z,43.46
2019-05-21T23:02:19.465Z,41.45
2019-05-21T23:04:51.846Z,40.79
2019-05-21T23:07:21.404Z,40.24
2019-05-21T23:09:50.981Z,40.27
2019-05-21T23:12:20.762Z,43.52
2019-05-21T23:14:51.022Z,41.13
2019-05-21T23:17:20.980Z,40.44
2019-05-21T23:19:51.064Z,40.16
2019-05-21T23:22:22.979Z,39.93
2019-05-21T23:24:53.183Z,40.29
2019-05-21T23:27:23.233Z,40.71
2019-05-21T23:29:52.952Z,41.37
2019-05-21T23:32:22.989Z,41.25
2019-05-21T23:34:54.287Z,41.13
2019-05-21T23:37:25.437Z,42.57
2019-05-21T23:39:55.833Z,45.50
2019-05-21T23:42:30.148Z,46.22
2019-05-21T23:44:57.674Z,47.60
2019-05-21T23:47:28.294Z,47.41
2019-05-21T23:49:57.880Z,46.77
2019-05-21T23:52:27.591Z,46.69
2019-05-21T23:54:58.144Z,48.93
2019-05-21T23:57:32.483Z,50.05
